Time;durP1;ratioP1;P1;durP2;ratioP2;P2;SDS_P1;SDS_P2;PMS_P1;PMS_P2;Temp;Humidity;BMP_temperature;BMP_pressure;BME280_temperature;BME280_humidity;BME280_pressure;Samples;Min_cycle;Max_cycle;Signal;HPM_P1;HPM_P2
2022/06/06 00:02:24;;;;;;;6.87;3.00;;;17.50;99.90;;;;;;6197620;23;20421;-90
2022/06/06 00:04:51;;;;;;;5.10;2.90;;;17.50;99.90;;;;;;6191283;23;20421;-89
2022/06/06 00:07:18;;;;;;;6.40;3.50;;;17.40;99.90;;;;;;6191438;23;20795;-89
2022/06/06 00:09:45;;;;;;;6.10;3.03;;;17.40;99.90;;;;;;6189967;23;20721;-89
2022/06/06 00:12:13;;;;;;;4.87;3.10;;;17.40;99.90;;;;;;6189941;23;20434;-89
2022/06/06 00:14:43;;;;;;;4.67;3.27;;;17.30;99.90;;;;;;6190721;23;20422;-87
2022/06/06 00:17:13;;;;;;;9.80;5.33;;;17.40;99.90;;;;;;6192129;23;20365;-89
2022/06/06 00:19:40;;;;;;;5.00;3.33;;;17.40;99.90;;;;;;6189698;23;20427;-88
2022/06/06 00:22:07;;;;;;;9.13;3.60;;;17.30;99.90;;;;;;6190600;23;20374;-89
2022/06/06 00:24:35;;;;;;;10.07;3.70;;;17.40;99.90;;;;;;6212946;23;20389;-90
2022/06/06 00:27:04;;;;;;;5.53;3.60;;;17.40;99.90;;;;;;6212622;23;20472;-89
2022/06/06 00:29:35;;;;;;;4.83;3.10;;;17.40;99.90;;;;;;6191797;23;20404;-89
2022/06/06 00:34:53;;;;;;;6.77;3.30;;;17.40;99.90;;;;;;6193538;23;20419;-89
2022/06/06 00:37:24;;;;;;;5.23;3.27;;;17.40;99.90;;;;;;6197090;23;20369;-88
2022/06/06 00:39:51;;;;;;;12.93;3.57;;;17.40;99.90;;;;;;6204940;23;20338;-88
2022/06/06 00:42:22;;;;;;;4.80;3.40;;;17.30;99.90;;;;;;6211952;23;20425;-89
2022/06/06 00:45:09;;;;;;;8.40;3.37;;;17.30;99.90;;;;;;6202832;23;20820;-88
2022/06/06 00:47:39;;;;;;;12.20;3.70;;;17.30;99.90;;;;;;6189670;23;20404;-87
2022/06/06 00:50:14;;;;;;;9.40;3.23;;;17.20;99.90;;;;;;6188136;23;20396;-88
2022/06/06 00:52:44;;;;;;;4.87;3.23;;;17.20;99.90;;;;;;6188903;23;20437;-88
2022/06/06 00:55:16;;;;;;;6.50;3.00;;;17.20;99.90;;;;;;6188039;23;20462;-87
2022/06/06 00:57:47;;;;;;;4.47;2.90;;;17.20;99.90;;;;;;6201706;23;20354;-88
2022/06/06 01:00:18;;;;;;;6.47;3.50;;;17.10;99.90;;;;;;6211760;23;20393;-89
2022/06/06 01:02:49;;;;;;;10.60;3.43;;;17.00;99.90;;;;;;6196393;23;20892;-89
2022/06/06 01:05:20;;;;;;;5.37;3.40;;;17.00;99.90;;;;;;6190365;23;20396;-88
2022/06/06 01:07:48;;;;;;;6.20;3.60;;;17.10;99.90;;;;;;6191408;23;20487;-88
2022/06/06 01:10:16;;;;;;;7.50;3.60;;;17.00;99.90;;;;;;6190460;23;20413;-88
2022/06/06 01:12:47;;;;;;;5.30;3.50;;;17.10;99.90;;;;;;6190888;23;20415;-89
2022/06/06 01:15:17;;;;;;;5.20;3.57;;;17.10;99.90;;;;;;6189813;23;20908;-89
2022/06/06 01:17:54;;;;;;;7.27;4.30;;;17.10;99.90;;;;;;6189714;23;20392;-89
2022/06/06 01:20:53;;;;;;;9.17;3.37;;;17.20;99.90;;;;;;6193851;23;20428;-88
2022/06/06 01:23:44;;;;;;;6.00;3.90;;;17.20;99.90;;;;;;6192145;23;20425;-88
2022/06/06 01:26:38;;;;;;;6.23;3.70;;;17.20;99.90;;;;;;6189189;23;20395;-87
2022/06/06 01:29:10;;;;;;;7.87;4.40;;;17.10;99.90;;;;;;6215472;23;20348;-89
2022/06/06 01:31:43;;;;;;;7.70;3.40;;;17.10;99.90;;;;;;6214948;23;20436;-88
2022/06/06 01:34:13;;;;;;;4.97;3.50;;;17.00;99.90;;;;;;6201695;23;20915;-89
2022/06/06 01:36:41;;;;;;;6.40;3.00;;;17.00;99.90;;;;;;6193955;23;20388;-88
2022/06/06 01:39:12;;;;;;;5.00;3.53;;;16.90;99.90;;;;;;6200792;23;20380;-88
2022/06/06 01:41:50;;;;;;;5.10;3.57;;;16.90;99.90;;;;;;6195564;23;20403;-89
2022/06/06 01:44:25;;;;;;;7.37;3.40;;;16.90;99.90;;;;;;6194409;23;20433;-89
2022/06/06 01:46:55;;;;;;;8.00;3.80;;;16.90;99.90;;;;;;6190844;23;20443;-89
2022/06/06 01:49:24;;;;;;;5.10;3.20;;;16.80;99.90;;;;;;6192122;23;20399;-89
2022/06/06 01:52:03;;;;;;;7.13;3.40;;;16.90;99.90;;;;;;6206043;23;20462;-88
2022/06/06 01:54:30;;;;;;;5.50;3.43;;;16.80;99.90;;;;;;6214528;23;20414;-89
2022/06/06 01:57:06;;;;;;;5.90;3.57;;;16.70;99.90;;;;;;6198560;23;20851;-89
2022/06/06 01:59:36;;;;;;;7.43;3.30;;;16.60;99.90;;;;;;6194283;23;20417;-88
2022/06/06 02:02:03;;;;;;;5.80;3.47;;;16.50;99.90;;;;;;6201417;23;20387;-88
2022/06/06 02:04:31;;;;;;;6.20;3.90;;;16.50;99.90;;;;;;6195692;23;20441;-88
2022/06/06 02:06:58;;;;;;;4.57;3.70;;;16.40;99.90;;;;;;6189857;23;20474;-88
2022/06/06 02:09:26;;;;;;;7.83;3.83;;;16.40;99.90;;;;;;6190589;23;20432;-89
2022/06/06 02:11:53;;;;;;;6.23;4.40;;;16.20;99.90;;;;;;6190969;23;20433;-87
2022/06/06 02:14:21;;;;;;;8.57;3.67;;;16.20;99.90;;;;;;6188748;23;20419;-88
2022/06/06 02:16:49;;;;;;;6.80;3.30;;;16.30;99.90;;;;;;6188808;23;20396;-88
2022/06/06 02:19:17;;;;;;;6.30;4.00;;;16.30;99.90;;;;;;6189219;23;20371;-88
2022/06/06 02:21:44;;;;;;;7.00;3.80;;;16.20;99.90;;;;;;6193238;23;20396;-87
2022/06/06 02:24:11;;;;;;;6.60;3.50;;;16.20;99.90;;;;;;6191533;23;20419;-88
2022/06/06 02:26:38;;;;;;;6.70;4.00;;;16.30;99.90;;;;;;6190493;23;20433;-87
2022/06/06 02:29:06;;;;;;;5.80;3.87;;;16.30;99.90;;;;;;6190430;23;20380;-88
2022/06/06 02:31:37;;;;;;;5.10;3.70;;;16.30;99.90;;;;;;6190410;23;20430;-89
2022/06/06 02:34:06;;;;;;;6.97;3.60;;;16.30;99.90;;;;;;6197059;23;20445;-90
2022/06/06 02:36:35;;;;;;;6.93;3.97;;;16.40;99.90;;;;;;6199041;23;20399;-90
2022/06/06 02:39:05;;;;;;;6.20;3.93;;;16.20;99.90;;;;;;6192432;23;20476;-88
2022/06/06 02:41:32;;;;;;;10.40;3.63;;;16.30;99.90;;;;;;6191219;23;20377;-89
2022/06/06 02:44:00;;;;;;;6.33;3.93;;;16.40;99.90;;;;;;6194323;23;20430;-89
2022/06/06 02:46:27;;;;;;;6.97;4.27;;;16.30;99.90;;;;;;6224583;23;20388;-88
2022/06/06 02:48:54;;;;;;;6.37;3.70;;;16.40;99.90;;;;;;6222978;23;20419;-89
2022/06/06 02:51:22;;;;;;;7.63;4.77;;;16.30;99.90;;;;;;6225009;23;20411;-88
2022/06/06 02:53:50;;;;;;;5.90;3.67;;;16.30;99.90;;;;;;6215196;23;20427;-89
2022/06/06 02:56:17;;;;;;;4.93;3.53;;;16.20;99.90;;;;;;6192291;23;20395;-89
2022/06/06 02:58:44;;;;;;;6.30;4.40;;;16.30;99.90;;;;;;6191564;23;20431;-90
2022/06/06 03:01:12;;;;;;;6.47;3.63;;;16.40;99.90;;;;;;6190609;23;20432;-90
2022/06/06 03:03:40;;;;;;;6.50;3.80;;;16.40;99.90;;;;;;6190696;23;20495;-89
2022/06/06 03:06:33;;;;;;;6.17;3.80;;;16.30;99.90;;;;;;6192006;23;20371;-89
2022/06/06 03:09:10;;;;;;;6.20;3.67;;;16.20;99.90;;;;;;6205017;23;20429;-90
2022/06/06 03:12:01;;;;;;;6.80;3.67;;;16.20;99.90;;;;;;6191149;23;20422;-89
2022/06/06 03:14:43;;;;;;;4.83;3.50;;;16.10;99.90;;;;;;6191490;23;20750;-88
2022/06/06 03:23:18;;;;;;;6.50;3.77;;;16.10;99.90;;;;;;6192780;23;20388;-89
2022/06/06 03:25:50;;;;;;;8.20;3.97;;;16.20;99.90;;;;;;6191568;23;20470;-88
2022/06/06 03:28:29;;;;;;;4.97;3.60;;;16.20;99.90;;;;;;6191135;23;20426;-88
2022/06/06 03:31:19;;;;;;;5.67;4.10;;;16.30;99.90;;;;;;6192609;23;20437;-88
2022/06/06 03:33:54;;;;;;;6.77;4.10;;;16.30;99.90;;;;;;6200856;23;20432;-88
2022/06/06 03:36:27;;;;;;;6.10;4.20;;;16.20;99.90;;;;;;6195114;23;20411;-89
2022/06/06 03:39:03;;;;;;;8.43;3.83;;;16.20;99.90;;;;;;6192388;23;20790;-88
2022/06/06 03:41:36;;;;;;;5.60;3.60;;;16.20;99.90;;;;;;6201329;23;20393;-89
2022/06/06 03:44:14;;;;;;;6.73;3.97;;;16.30;99.90;;;;;;6191853;23;20419;-88
2022/06/06 03:46:54;;;;;;;6.70;4.63;;;16.20;99.90;;;;;;6196441;23;20372;-88
2022/06/06 03:49:32;;;;;;;5.63;4.17;;;16.30;99.90;;;;;;6201015;23;20400;-89
2022/06/06 03:52:06;;;;;;;7.53;4.37;;;16.20;99.90;;;;;;6196791;23;20387;-89
2022/06/06 03:54:47;;;;;;;7.67;4.43;;;16.30;99.90;;;;;;6194654;23;20755;-88
2022/06/06 03:57:17;;;;;;;5.70;3.70;;;16.30;99.90;;;;;;6193853;23;20400;-89
2022/06/06 03:59:47;;;;;;;8.83;4.17;;;16.30;99.90;;;;;;6206825;23;20406;-89
2022/06/06 04:02:19;;;;;;;6.70;4.50;;;16.30;99.90;;;;;;6203401;23;20398;-89
2022/06/06 04:04:49;;;;;;;6.47;4.40;;;16.30;99.90;;;;;;6193072;23;20428;-89
2022/06/06 04:07:16;;;;;;;5.97;4.33;;;16.30;99.90;;;;;;6201207;23;20474;-88
2022/06/06 04:09:45;;;;;;;5.63;4.03;;;16.30;99.90;;;;;;6209261;23;20390;-90
2022/06/06 04:12:40;;;;;;;6.13;4.13;;;16.30;99.90;;;;;;6205185;23;20421;-89
2022/06/06 04:15:19;;;;;;;6.53;3.80;;;16.30;99.90;;;;;;6206288;23;20415;-90
2022/06/06 04:18:08;;;;;;;6.27;4.40;;;16.40;99.90;;;;;;6204384;23;20402;-89
2022/06/06 04:20:39;;;;;;;6.83;4.10;;;16.40;99.90;;;;;;6192090;23;20412;-89
2022/06/06 04:23:28;;;;;;;6.20;3.97;;;16.30;99.90;;;;;;6191482;23;20379;-89
2022/06/06 04:26:11;;;;;;;7.13;4.30;;;16.20;99.90;;;;;;6197117;23;20478;-88
2022/06/06 04:28:47;;;;;;;5.90;4.10;;;16.30;99.90;;;;;;6195032;23;20434;-89
2022/06/06 04:31:19;;;;;;;6.70;4.00;;;16.30;99.90;;;;;;6190238;23;20783;-89
2022/06/06 04:33:51;;;;;;;7.80;4.20;;;16.30;99.90;;;;;;6210487;23;20396;-88
2022/06/06 04:36:27;;;;;;;7.23;4.80;;;16.40;99.90;;;;;;6210455;23;20489;-89
2022/06/06 04:39:01;;;;;;;5.70;3.60;;;16.50;99.90;;;;;;6208428;23;20401;-87
2022/06/06 04:41:36;;;;;;;6.23;4.00;;;16.60;99.90;;;;;;6208669;23;20745;-89
2022/06/06 04:44:12;;;;;;;7.40;4.10;;;16.70;99.90;;;;;;6191840;23;20438;-90
2022/06/06 04:46:45;;;;;;;5.23;4.03;;;16.80;99.90;;;;;;6190900;23;20405;-89
2022/06/06 04:49:13;;;;;;;8.57;4.57;;;16.90;99.90;;;;;;6189846;23;20479;-89
2022/06/06 04:51:43;;;;;;;6.87;3.90;;;17.00;99.90;;;;;;6190030;23;20467;-89
2022/06/06 04:54:14;;;;;;;8.00;4.53;;;17.10;99.90;;;;;;6191335;23;20913;-90
2022/06/06 04:56:44;;;;;;;8.37;3.60;;;17.20;99.90;;;;;;6199922;23;20368;-90
2022/06/06 04:59:12;;;;;;;5.10;3.70;;;17.30;99.90;;;;;;6208602;23;20409;-89
2022/06/06 05:01:40;;;;;;;9.33;3.87;;;17.40;99.90;;;;;;6193585;23;20419;-89
2022/06/06 05:04:08;;;;;;;6.23;4.10;;;17.50;99.90;;;;;;6191816;23;20475;-89
2022/06/06 05:07:07;;;;;;;7.40;4.53;;;17.40;99.90;;;;;;6192648;23;20455;-88
2022/06/06 05:10:10;;;;;;;6.53;4.27;;;17.50;99.90;;;;;;6157540;23;20439;-89
2022/06/06 05:12:56;;;;;;;7.40;3.90;;;17.60;99.90;;;;;;6167345;23;20930;-89
2022/06/06 05:15:39;;;;;;;5.23;3.90;;;17.50;99.90;;;;;;6191126;23;20411;-88
2022/06/06 05:18:22;;;;;;;6.00;4.27;;;17.60;99.90;;;;;;6210008;23;20412;-87
2022/06/06 05:21:02;;;;;;;5.40;3.70;;;17.70;99.90;;;;;;6206936;23;20406;-89
2022/06/06 05:23:52;;;;;;;5.93;3.60;;;17.90;99.90;;;;;;6192225;23;20404;-88
2022/06/06 05:26:41;;;;;;;6.43;4.33;;;18.10;99.90;;;;;;6205391;23;20407;-89
2022/06/06 05:29:41;;;;;;;6.60;3.83;;;18.20;99.90;;;;;;6212050;23;20438;-89
2022/06/06 05:32:22;;;;;;;10.03;4.10;;;18.30;99.90;;;;;;6193277;23;20466;-90
2022/06/06 05:34:57;;;;;;;6.73;4.20;;;18.40;99.90;;;;;;6193258;23;20385;-89
2022/06/06 05:37:37;;;;;;;5.97;4.27;;;18.40;99.90;;;;;;6195380;23;20883;-89
2022/06/06 05:40:19;;;;;;;6.87;3.87;;;18.50;99.90;;;;;;6205391;23;20369;-89
2022/06/06 05:43:18;;;;;;;6.17;4.13;;;18.50;99.90;;;;;;6198570;23;20381;-90
2022/06/06 05:46:01;;;;;;;7.53;4.43;;;18.50;99.90;;;;;;6190059;23;20421;-90
2022/06/06 05:48:44;;;;;;;6.07;3.67;;;18.50;99.90;;;;;;6192786;23;20523;-89
2022/06/06 05:51:23;;;;;;;6.23;4.20;;;18.50;99.90;;;;;;6194891;23;20458;-89
2022/06/06 05:54:01;;;;;;;5.70;3.83;;;18.60;99.90;;;;;;6199876;23;20468;-89
2022/06/06 05:56:45;;;;;;;6.87;4.10;;;18.60;99.90;;;;;;6196864;23;20529;-89
2022/06/06 05:59:51;;;;;;;5.60;4.30;;;18.70;99.90;;;;;;6197467;23;20427;-89
2022/06/06 06:02:35;;;;;;;6.60;4.07;;;18.80;99.90;;;;;;6186956;23;20409;-89
2022/06/06 06:05:17;;;;;;;5.80;4.03;;;19.00;99.90;;;;;;6195411;23;20500;-89
2022/06/06 06:07:58;;;;;;;6.97;3.83;;;19.00;99.90;;;;;;6192794;23;20443;-89
2022/06/06 06:10:34;;;;;;;7.27;4.03;;;19.00;99.90;;;;;;6206875;23;20425;-89
2022/06/06 06:13:16;;;;;;;7.53;4.40;;;19.00;99.90;;;;;;6198475;23;20818;-88
2022/06/06 06:15:45;;;;;;;6.57;4.87;;;19.10;99.90;;;;;;6192925;23;20431;-89
2022/06/06 06:18:18;;;;;;;6.87;4.07;;;19.10;99.90;;;;;;6196750;23;20414;-89
2022/06/06 06:20:51;;;;;;;5.43;3.83;;;19.20;99.90;;;;;;6214045;23;20410;-87
2022/06/06 06:23:24;;;;;;;6.67;4.53;;;19.50;99.90;;;;;;6215093;23;20422;-87
2022/06/06 06:25:52;;;;;;;7.00;4.83;;;19.70;99.90;;;;;;6215115;23;20433;-89
2022/06/06 06:28:19;;;;;;;5.10;3.70;;;19.60;99.90;;;;;;6214169;23;20445;-89
2022/06/06 06:31:00;;;;;;;7.37;4.70;;;19.70;99.90;;;;;;6206977;23;20414;-89
2022/06/06 06:33:49;;;;;;;7.33;4.53;;;19.90;99.90;;;;;;6211061;23;20499;-89
2022/06/06 06:36:30;;;;;;;4.93;3.97;;;19.90;99.90;;;;;;6215382;23;20380;-88
2022/06/06 06:39:10;;;;;;;6.90;4.47;;;20.00;99.90;;;;;;6215059;23;20390;-87
2022/06/06 06:41:50;;;;;;;5.17;4.07;;;20.00;99.90;;;;;;6208301;23;20391;-89
2022/06/06 06:44:24;;;;;;;6.30;4.13;;;20.00;99.90;;;;;;6207003;23;20509;-89
2022/06/06 06:46:58;;;;;;;5.47;3.73;;;20.00;99.90;;;;;;6208664;23;20386;-89
2022/06/06 06:49:37;;;;;;;6.70;4.30;;;20.10;99.90;;;;;;6208481;23;20419;-88
2022/06/06 06:52:13;;;;;;;7.67;4.67;;;20.20;99.90;;;;;;6209817;23;20410;-89
2022/06/06 06:54:52;;;;;;;8.70;4.27;;;20.20;99.90;;;;;;6206361;23;20453;-87
2022/06/06 06:57:32;;;;;;;6.20;4.03;;;20.30;99.90;;;;;;6213267;23;20374;-87
2022/06/06 07:00:08;;;;;;;6.10;3.90;;;20.50;99.90;;;;;;6214113;23;20398;-89
2022/06/06 07:08:41;;;;;;;8.53;4.77;;;20.70;99.90;;;;;;6208176;23;20416;-89
2022/06/06 07:11:32;;;;;;;9.20;4.30;;;20.80;99.90;;;;;;6211562;23;20721;-87
2022/06/06 07:14:06;;;;;;;6.20;4.17;;;20.90;99.90;;;;;;6213070;23;20463;-88
2022/06/06 07:16:35;;;;;;;6.73;3.93;;;20.90;99.90;;;;;;6214251;23;20406;-86
2022/06/06 07:19:08;;;;;;;6.10;4.13;;;21.00;99.90;;;;;;6209677;23;20408;-89
2022/06/06 07:21:38;;;;;;;7.50;4.37;;;21.00;99.90;;;;;;6184760;23;20391;-88
2022/06/06 07:24:08;;;;;;;6.17;4.40;;;21.00;99.90;;;;;;6181820;23;20414;-89
2022/06/06 07:26:38;;;;;;;5.30;3.70;;;21.20;99.90;;;;;;6177664;23;20431;-90
2022/06/06 07:29:11;;;;;;;6.07;4.23;;;21.40;99.90;;;;;;6180544;23;20437;-91
2022/06/06 07:31:59;;;;;;;4.97;3.80;;;21.40;99.90;;;;;;6181968;23;20385;-89
2022/06/06 07:34:47;;;;;;;6.77;4.60;;;21.40;99.90;;;;;;6183590;23;20463;-89
2022/06/06 07:37:30;;;;;;;5.47;4.00;;;21.60;99.90;;;;;;6183252;23;20456;-88
2022/06/06 07:40:06;;;;;;;6.27;4.20;;;21.60;99.90;;;;;;6183805;23;20422;-88
2022/06/06 07:42:56;;;;;;;7.27;3.83;;;21.50;99.90;;;;;;6178057;23;20414;-89
2022/06/06 07:45:29;;;;;;;5.90;4.33;;;21.60;99.90;;;;;;6163831;23;20451;-89
2022/06/06 07:48:12;;;;;;;5.30;4.10;;;21.70;99.90;;;;;;6162597;23;20412;-89
2022/06/06 07:50:49;;;;;;;6.43;4.00;;;21.80;99.90;;;;;;6163181;23;20381;-89
2022/06/06 07:53:27;;;;;;;4.97;3.93;;;21.90;99.90;;;;;;6172476;23;20410;-89
2022/06/06 07:56:07;;;;;;;5.20;3.83;;;22.00;99.90;;;;;;6180320;23;20425;-89
2022/06/06 07:58:42;;;;;;;6.03;3.67;;;22.20;99.90;;;;;;6163400;23;20388;-90
2022/06/06 08:01:16;;;;;;;6.07;3.80;;;22.30;99.90;;;;;;6164412;23;20403;-90
2022/06/06 08:03:53;;;;;;;5.93;3.90;;;22.20;99.90;;;;;;6164684;23;20408;-89
2022/06/06 08:06:36;;;;;;;10.77;3.80;;;22.30;99.90;;;;;;6163411;23;20478;-90
2022/06/06 08:09:42;;;;;;;7.73;4.40;;;22.40;99.90;;;;;;6161557;23;20443;-89
2022/06/06 08:12:27;;;;;;;5.50;3.53;;;22.30;99.90;;;;;;6161231;23;20415;-90
2022/06/06 08:15:07;;;;;;;5.70;3.73;;;22.10;99.90;;;;;;6162950;23;20422;-90
2022/06/06 08:18:09;;;;;;;5.17;4.10;;;22.20;99.90;;;;;;6163381;23;20431;-89
2022/06/06 08:20:43;;;;;;;7.47;4.10;;;22.40;99.90;;;;;;6143317;23;20762;-90
2022/06/06 08:23:13;;;;;;;5.63;3.80;;;22.40;99.90;;;;;;6161236;23;20411;-89
2022/06/06 08:25:45;;;;;;;10.43;3.90;;;22.50;99.90;;;;;;6162242;23;20944;-88
2022/06/06 08:28:12;;;;;;;6.37;3.43;;;22.40;99.90;;;;;;6165957;23;20428;-88
2022/06/06 08:30:42;;;;;;;5.30;3.10;;;22.50;99.90;;;;;;6175888;23;20415;-88
2022/06/06 08:33:09;;;;;;;5.23;3.30;;;22.60;99.90;;;;;;6162171;23;20439;-88
2022/06/06 08:35:46;;;;;;;5.07;3.60;;;22.60;99.90;;;;;;6161315;23;20543;-89
2022/06/06 08:38:43;;;;;;;5.03;3.30;;;22.50;99.90;;;;;;6161419;23;20432;-89
2022/06/06 08:41:46;;;;;;;5.33;3.00;;;22.50;99.90;;;;;;6155132;23;20415;-90
2022/06/06 08:47:05;;;;;;;4.40;2.90;;;22.90;99.90;;;;;;6163997;23;20415;-89
2022/06/06 08:53:12;;;;;;;4.80;3.17;;;22.80;99.90;;;;;;6158846;23;20379;-89
2022/06/06 08:56:18;;;;;;;6.07;2.70;;;22.40;99.90;;;;;;6158226;23;20438;-88
2022/06/06 08:59:09;;;;;;;7.53;2.97;;;22.60;99.90;;;;;;6121186;23;20415;-89
2022/06/06 09:01:56;;;;;;;6.53;3.03;;;22.90;99.90;;;;;;6102660;23;20439;-88
2022/06/06 09:04:51;;;;;;;6.73;3.17;;;22.90;99.90;;;;;;6171767;23;20431;-89
2022/06/06 09:08:03;;;;;;;4.67;3.00;;;23.00;99.90;;;;;;6150679;23;20415;-89
2022/06/06 09:11:00;;;;;;;5.13;2.87;;;23.30;99.90;;;;;;6159767;23;20894;-87
2022/06/06 09:14:03;;;;;;;5.03;2.60;;;23.50;98.70;;;;;;6159317;23;20404;-89
2022/06/06 09:16:59;;;;;;;4.40;2.50;;;23.70;96.70;;;;;;6157537;23;20446;-89
2022/06/06 09:20:11;;;;;;;4.20;2.37;;;23.70;97.10;;;;;;6166086;23;20404;-89
2022/06/06 09:23:05;;;;;;;4.90;2.60;;;23.70;96.30;;;;;;6130425;23;20399;-89
2022/06/06 09:25:37;;;;;;;4.30;2.80;;;23.60;96.20;;;;;;6182068;23;20450;-93
2022/06/06 09:28:55;;;;;;;5.30;3.13;;;23.60;96.10;;;;;;6181239;23;20395;-89
2022/06/06 09:31:55;;;;;;;4.97;3.27;;;23.60;96.10;;;;;;6163392;23;20731;-90
2022/06/06 09:35:04;;;;;;;4.90;2.40;;;23.50;95.70;;;;;;6166598;23;20380;-90
2022/06/06 09:37:38;;;;;;;6.03;3.10;;;23.60;95.40;;;;;;6184403;23;20419;-89
2022/06/06 09:40:23;;;;;;;4.53;2.37;;;23.70;95.40;;;;;;6181183;23;20390;-89
2022/06/06 09:43:08;;;;;;;4.83;2.80;;;23.60;95.40;;;;;;6165851;23;20462;-88
2022/06/06 09:45:52;;;;;;;4.00;2.37;;;23.70;95.20;;;;;;6161856;23;20441;-88
2022/06/06 09:48:47;;;;;;;5.33;2.60;;;23.60;94.40;;;;;;6161934;23;20466;-88
2022/06/06 09:51:50;;;;;;;4.90;2.57;;;23.50;95.00;;;;;;6171549;23;20407;-89
2022/06/06 10:01:39;;;;;;;5.70;2.90;;;23.50;95.30;;;;;;6140618;23;20883;-89
2022/06/06 10:04:41;;;;;;;3.80;2.13;;;23.40;95.30;;;;;;6163047;23;20418;-89
2022/06/06 10:07:41;;;;;;;5.13;2.50;;;23.50;94.60;;;;;;6160532;23;20421;-89
2022/06/06 10:10:40;;;;;;;3.93;2.30;;;23.60;92.90;;;;;;6163177;23;20435;-88
2022/06/06 10:13:26;;;;;;;4.03;2.30;;;23.80;92.60;;;;;;6160273;23;20372;-88
2022/06/06 10:16:25;;;;;;;4.37;2.57;;;23.70;93.30;;;;;;6159508;23;20439;-88
2022/06/06 10:19:09;;;;;;;3.97;2.43;;;23.40;93.50;;;;;;6161025;23;20377;-89
2022/06/06 10:22:25;;;;;;;4.50;2.77;;;23.30;94.00;;;;;;6164516;23;20403;-88
2022/06/06 10:25:37;;;;;;;5.40;3.00;;;23.70;94.60;;;;;;6167306;23;20412;-89
2022/06/06 10:28:31;;;;;;;5.70;2.80;;;23.80;94.20;;;;;;6161610;23;20443;-89
2022/06/06 10:31:13;;;;;;;7.70;3.23;;;24.10;94.00;;;;;;6173071;23;20946;-89
2022/06/06 10:37:09;;;;;;;4.30;2.40;;;24.30;93.50;;;;;;6185315;23;20449;-90
2022/06/06 10:40:04;;;;;;;7.53;3.07;;;24.30;94.00;;;;;;6138899;23;20442;-89
2022/06/06 10:43:03;;;;;;;4.83;2.93;;;24.40;93.60;;;;;;6201408;23;20406;-88
2022/06/06 10:45:38;;;;;;;4.40;2.70;;;24.30;92.80;;;;;;6173252;23;20518;-89
2022/06/06 10:48:16;;;;;;;4.57;2.70;;;24.40;93.00;;;;;;6160095;23;20449;-87
2022/06/06 10:54:29;;;;;;;4.20;2.60;;;24.60;93.30;;;;;;6182271;23;20380;-87
2022/06/06 10:57:28;;;;;;;5.37;2.83;;;24.50;93.30;;;;;;6164684;23;20470;-88
2022/06/06 11:00:15;;;;;;;7.20;3.00;;;24.50;93.70;;;;;;6160149;23;20396;-88
2022/06/06 11:03:20;;;;;;;4.80;2.73;;;24.40;93.20;;;;;;6161373;23;20443;-88
2022/06/06 11:06:22;;;;;;;5.50;3.20;;;24.30;92.30;;;;;;6161471;23;20427;-88
2022/06/06 11:09:18;;;;;;;5.50;3.17;;;24.50;92.20;;;;;;6159976;23;20435;-88
2022/06/06 11:12:23;;;;;;;5.60;3.00;;;24.50;91.40;;;;;;6157156;23;20433;-88
2022/06/06 11:14:51;;;;;;;5.67;2.80;;;24.50;91.50;;;;;;6160669;23;20420;-87
2022/06/06 11:18:08;;;;;;;3.93;2.30;;;24.60;91.50;;;;;;6160794;23;20403;-88
2022/06/06 11:21:24;;;;;;;4.30;2.70;;;24.80;91.40;;;;;;6147805;23;20400;-92
2022/06/06 11:24:09;;;;;;;4.87;2.67;;;24.80;91.50;;;;;;6183019;23;20490;-88
2022/06/06 11:27:06;;;;;;;3.77;2.50;;;24.70;91.50;;;;;;6176089;23;20427;-87
2022/06/06 11:30:00;;;;;;;4.17;2.50;;;24.50;91.80;;;;;;6167871;23;20439;-87
2022/06/06 11:33:09;;;;;;;4.50;2.60;;;24.50;91.90;;;;;;6166854;23;20415;-88
2022/06/06 11:35:48;;;;;;;4.47;2.87;;;24.60;92.00;;;;;;6174246;23;20427;-88
2022/06/06 11:38:41;;;;;;;4.50;2.97;;;24.50;91.90;;;;;;6160664;23;20392;-89
2022/06/06 11:41:30;;;;;;;6.43;2.93;;;24.50;91.60;;;;;;6161371;23;20416;-88
2022/06/06 11:44:12;;;;;;;4.80;3.03;;;24.40;91.50;;;;;;6160155;23;20418;-88
2022/06/06 11:47:10;;;;;;;6.23;3.13;;;24.60;91.50;;;;;;6161211;23;20407;-88
2022/06/06 11:50:10;;;;;;;7.60;3.17;;;24.60;91.00;;;;;;6165031;23;20447;-87
2022/06/06 11:53:21;;;;;;;5.47;3.50;;;24.70;90.90;;;;;;6160654;23;20757;-88
2022/06/06 11:56:04;;;;;;;5.20;2.87;;;24.70;91.10;;;;;;6159970;23;20451;-88
2022/06/06 11:59:04;;;;;;;4.73;2.50;;;24.70;91.20;;;;;;6159420;23;20442;-88
2022/06/06 12:02:10;;;;;;;6.07;3.20;;;24.80;90.70;;;;;;6159988;23;20408;-88
2022/06/06 12:05:16;;;;;;;5.10;3.47;;;24.80;90.80;;;;;;6124364;23;20443;-88
2022/06/06 12:08:23;;;;;;;5.10;3.43;;;24.90;90.80;;;;;;6154921;23;20442;-89
2022/06/06 12:11:10;;;;;;;4.23;2.80;;;24.90;90.10;;;;;;6178968;23;20438;-91
2022/06/06 12:13:56;;;;;;;4.87;3.00;;;24.80;88.80;;;;;;6182992;23;20485;-88
2022/06/06 12:16:45;;;;;;;4.60;2.67;;;24.90;89.40;;;;;;6177480;23;20400;-88
2022/06/06 12:19:50;;;;;;;4.50;2.90;;;24.90;89.00;;;;;;6173656;23;20415;-88
2022/06/06 12:22:40;;;;;;;6.10;2.47;;;24.90;87.60;;;;;;6154242;23;20407;-88
2022/06/06 12:25:37;;;;;;;5.80;2.60;;;24.70;88.50;;;;;;6162163;23;20427;-88
2022/06/06 12:28:33;;;;;;;4.37;2.70;;;24.60;87.40;;;;;;6159201;23;20443;-88
2022/06/06 12:31:41;;;;;;;4.20;2.80;;;24.60;86.90;;;;;;6159934;23;20446;-88
2022/06/06 12:34:16;;;;;;;5.43;3.13;;;24.60;86.60;;;;;;6180577;23;20374;-88
2022/06/06 12:37:01;;;;;;;4.60;2.60;;;24.60;86.60;;;;;;6170440;23;20430;-87
2022/06/06 12:39:43;;;;;;;4.80;2.60;;;24.90;85.00;;;;;;6161518;23;20415;-88
2022/06/06 12:42:24;;;;;;;4.10;2.43;;;25.00;84.50;;;;;;6170494;23;20396;-88
2022/06/06 12:45:29;;;;;;;4.30;2.40;;;24.90;83.70;;;;;;6180434;23;20443;-88
2022/06/06 12:48:24;;;;;;;4.40;2.90;;;25.00;84.60;;;;;;6165091;23;20734;-88
2022/06/06 12:51:05;;;;;;;3.90;2.73;;;25.10;84.90;;;;;;6163117;23;20474;-88
2022/06/06 12:53:57;;;;;;;5.80;2.60;;;25.10;83.90;;;;;;6166173;23;20383;-88
2022/06/06 12:56:39;;;;;;;6.10;3.10;;;25.20;84.10;;;;;;6164264;23;20489;-88
2022/06/06 12:59:55;;;;;;;5.03;2.60;;;25.30;83.90;;;;;;6171839;23;20395;-88
2022/06/06 13:02:47;;;;;;;4.20;2.20;;;25.40;83.10;;;;;;6071441;23;20816;-88
2022/06/06 13:05:33;;;;;;;6.87;2.80;;;25.30;81.70;;;;;;6071604;23;20446;-89
2022/06/06 13:08:44;;;;;;;3.70;1.90;;;25.20;81.80;;;;;;6076365;23;20408;-88
2022/06/06 13:11:49;;;;;;;4.30;2.60;;;24.80;84.50;;;;;;6071094;23;20438;-88
2022/06/06 13:14:49;;;;;;;4.33;2.70;;;24.70;84.70;;;;;;6125342;23;20407;-89
2022/06/06 13:17:38;;;;;;;4.30;2.60;;;24.80;85.20;;;;;;6163009;23;20466;-87
2022/06/06 13:20:16;;;;;;;3.97;2.73;;;24.60;86.00;;;;;;6161238;23;20468;-88
2022/06/06 13:23:02;;;;;;;5.10;2.67;;;24.60;86.40;;;;;;6163627;23;20387;-88
2022/06/06 13:25:41;;;;;;;4.87;2.77;;;24.50;85.10;;;;;;6167239;23;20437;-88
2022/06/06 13:28:23;;;;;;;5.53;2.57;;;24.40;86.00;;;;;;6160357;23;20605;-88
2022/06/06 13:31:08;;;;;;;4.93;2.80;;;24.30;86.90;;;;;;6161724;23;20846;-89
2022/06/06 13:33:51;;;;;;;5.53;2.80;;;24.30;88.30;;;;;;6162893;23;20534;-88
2022/06/06 13:36:35;;;;;;;5.87;3.20;;;24.20;88.80;;;;;;6167832;23;20458;-88
2022/06/06 13:42:09;;;;;;;4.93;2.73;;;24.10;89.50;;;;;;6126606;23;20481;-88
2022/06/06 13:45:07;;;;;;;4.23;2.63;;;24.10;89.30;;;;;;6169395;23;20411;-88
2022/06/06 13:48:15;;;;;;;3.60;2.10;;;23.90;89.20;;;;;;6172811;23;20410;-87
2022/06/06 13:50:59;;;;;;;6.57;2.63;;;23.80;90.00;;;;;;6134670;23;20451;-88
2022/06/06 13:53:53;;;;;;;4.17;2.50;;;23.80;90.10;;;;;;6162445;23;20447;-87
2022/06/06 13:56:59;;;;;;;3.60;2.17;;;23.70;90.00;;;;;;6150665;23;20427;-88
2022/06/06 13:59:49;;;;;;;3.90;2.50;;;23.60;90.20;;;;;;6163047;23;20415;-90
2022/06/06 14:02:35;;;;;;;4.40;2.57;;;23.50;90.40;;;;;;6162405;23;20407;-88
2022/06/06 14:05:24;;;;;;;8.00;2.80;;;23.30;91.00;;;;;;6165225;23;20431;-89
2022/06/06 14:08:21;;;;;;;5.10;3.47;;;23.30;91.30;;;;;;6166043;23;20487;-88
2022/06/06 14:11:11;;;;;;;4.30;2.20;;;23.30;91.20;;;;;;6182715;23;20446;-87
2022/06/06 14:13:50;;;;;;;6.67;4.40;;;23.50;91.10;;;;;;6166770;23;20918;-88
2022/06/06 14:16:23;;;;;;;4.03;2.83;;;23.50;91.00;;;;;;6170063;23;20443;-89
2022/06/06 14:18:54;;;;;;;4.67;3.03;;;23.40;91.20;;;;;;6181723;23;20399;-88
2022/06/06 14:21:29;;;;;;;5.37;2.73;;;23.40;91.30;;;;;;6166770;23;20412;-88
2022/06/06 14:24:12;;;;;;;5.70;2.63;;;23.50;91.50;;;;;;6167997;23;20392;-88
2022/06/06 14:26:40;;;;;;;5.80;3.50;;;23.60;91.50;;;;;;6164564;23;20420;-88
2022/06/06 14:29:12;;;;;;;4.63;2.87;;;23.40;91.60;;;;;;6165876;23;20429;-87
2022/06/06 14:31:56;;;;;;;4.80;2.50;;;23.40;91.50;;;;;;6172507;23;20482;-89
2022/06/06 14:34:35;;;;;;;6.40;3.00;;;23.50;91.80;;;;;;6165753;23;20411;-88
2022/06/06 14:37:16;;;;;;;4.47;2.80;;;23.60;91.50;;;;;;6164195;23;20435;-88
2022/06/06 14:39:47;;;;;;;6.13;3.77;;;23.80;91.70;;;;;;6166874;23;20430;-87